sensor_id;sensor_type;location;lat;lon;timestamp;P1;durP1;ratioP1;P2;durP2;ratioP2
79644;SDS011;69117;47.148;18.954;2024-03-17T00:00:33;1.13;;;0.50;;
79644;SDS011;69117;47.148;18.954;2024-03-17T00:03:35;0.60;;;0.10;;
79644;SDS011;69117;47.148;18.954;2024-03-17T00:06:36;0.88;;;0.28;;
79644;SDS011;69117;47.148;18.954;2024-03-17T00:09:36;0.50;;;0.30;;
79644;SDS011;69117;47.148;18.954;2024-03-17T00:12:37;0.22;;;0.22;;
79644;SDS011;69117;47.148;18.954;2024-03-17T00:15:38;1.15;;;0.40;;
79644;SDS011;69117;47.148;18.954;2024-03-17T00:18:39;1.00;;;0.52;;
79644;SDS011;69117;47.148;18.954;2024-03-17T00:21:41;1.20;;;0.68;;
79644;SDS011;69117;47.148;18.954;2024-03-17T00:24:42;0.47;;;0.10;;
79644;SDS011;69117;47.148;18.954;2024-03-17T00:27:43;1.52;;;0.20;;
79644;SDS011;69117;47.148;18.954;2024-03-17T00:30:45;0.52;;;0.10;;
79644;SDS011;69117;47.148;18.954;2024-03-17T00:33:46;0.60;;;0.35;;
79644;SDS011;69117;47.148;18.954;2024-03-17T00:36:47;0.85;;;0.30;;
79644;SDS011;69117;47.148;18.954;2024-03-17T00:39:47;0.60;;;0.52;;
79644;SDS011;69117;47.148;18.954;2024-03-17T00:42:48;0.63;;;0.35;;
79644;SDS011;69117;47.148;18.954;2024-03-17T00:45:51;0.17;;;0.10;;
79644;SDS011;69117;47.148;18.954;2024-03-17T00:48:52;0.00;;;0.00;;
79644;SDS011;69117;47.148;18.954;2024-03-17T00:51:52;1.13;;;0.43;;
79644;SDS011;69117;47.148;18.954;2024-03-17T00:54:53;0.43;;;0.22;;
79644;SDS011;69117;47.148;18.954;2024-03-17T00:57:54;4.25;;;0.22;;
79644;SDS011;69117;47.148;18.954;2024-03-17T01:00:55;0.68;;;0.68;;
79644;SDS011;69117;47.148;18.954;2024-03-17T01:03:55;0.82;;;0.20;;
79644;SDS011;69117;47.148;18.954;2024-03-17T01:06:56;0.50;;;0.50;;
79644;SDS011;69117;47.148;18.954;2024-03-17T01:09:57;0.00;;;0.00;;
79644;SDS011;69117;47.148;18.954;2024-03-17T01:12:58;0.30;;;0.30;;
79644;SDS011;69117;47.148;18.954;2024-03-17T01:15:58;0.50;;;0.50;;
79644;SDS011;69117;47.148;18.954;2024-03-17T01:18:59;1.15;;;0.13;;
79644;SDS011;69117;47.148;18.954;2024-03-17T01:22:00;0.00;;;0.00;;
79644;SDS011;69117;47.148;18.954;2024-03-17T01:25:02;0.45;;;0.10;;
79644;SDS011;69117;47.148;18.954;2024-03-17T01:28:03;1.20;;;0.20;;
79644;SDS011;69117;47.148;18.954;2024-03-17T01:31:07;0.15;;;0.13;;
79644;SDS011;69117;47.148;18.954;2024-03-17T01:34:09;1.25;;;0.08;;
79644;SDS011;69117;47.148;18.954;2024-03-17T01:37:10;0.63;;;0.10;;
79644;SDS011;69117;47.148;18.954;2024-03-17T01:40:11;0.25;;;0.10;;
79644;SDS011;69117;47.148;18.954;2024-03-17T01:43:12;0.73;;;0.10;;
79644;SDS011;69117;47.148;18.954;2024-03-17T01:46:14;0.77;;;0.22;;
79644;SDS011;69117;47.148;18.954;2024-03-17T01:49:17;0.40;;;0.40;;
79644;SDS011;69117;47.148;18.954;2024-03-17T01:55:20;0.17;;;0.10;;
79644;SDS011;69117;47.148;18.954;2024-03-17T01:58:23;0.88;;;0.30;;
79644;SDS011;69117;47.148;18.954;2024-03-17T02:01:25;0.50;;;0.13;;
79644;SDS011;69117;47.148;18.954;2024-03-17T02:04:26;0.20;;;0.20;;
79644;SDS011;69117;47.148;18.954;2024-03-17T02:07:27;0.57;;;0.32;;
79644;SDS011;69117;47.148;18.954;2024-03-17T02:10:28;0.47;;;0.35;;
79644;SDS011;69117;47.148;18.954;2024-03-17T02:13:28;0.32;;;0.10;;
79644;SDS011;69117;47.148;18.954;2024-03-17T02:16:29;1.50;;;1.40;;
79644;SDS011;69117;47.148;18.954;2024-03-17T02:19:30;0.30;;;0.10;;
79644;SDS011;69117;47.148;18.954;2024-03-17T02:22:31;0.32;;;0.17;;
79644;SDS011;69117;47.148;18.954;2024-03-17T02:25:31;1.23;;;0.20;;
79644;SDS011;69117;47.148;18.954;2024-03-17T02:28:42;0.70;;;0.40;;
79644;SDS011;69117;47.148;18.954;2024-03-17T02:31:43;0.70;;;0.35;;
79644;SDS011;69117;47.148;18.954;2024-03-17T02:34:44;0.13;;;0.00;;
79644;SDS011;69117;47.148;18.954;2024-03-17T02:37:45;1.33;;;0.95;;
79644;SDS011;69117;47.148;18.954;2024-03-17T02:40:45;2.53;;;0.90;;
79644;SDS011;69117;47.148;18.954;2024-03-17T02:43:46;0.28;;;0.13;;
79644;SDS011;69117;47.148;18.954;2024-03-17T02:46:47;0.80;;;0.30;;
79644;SDS011;69117;47.148;18.954;2024-03-17T02:49:48;0.50;;;0.30;;
79644;SDS011;69117;47.148;18.954;2024-03-17T02:52:50;0.38;;;0.20;;
79644;SDS011;69117;47.148;18.954;2024-03-17T02:55:51;1.10;;;0.20;;
79644;SDS011;69117;47.148;18.954;2024-03-17T02:58:52;0.43;;;0.28;;
79644;SDS011;69117;47.148;18.954;2024-03-17T03:01:52;0.88;;;0.25;;
79644;SDS011;69117;47.148;18.954;2024-03-17T03:04:53;1.17;;;0.65;;
79644;SDS011;69117;47.148;18.954;2024-03-17T03:07:54;2.03;;;0.60;;
79644;SDS011;69117;47.148;18.954;2024-03-17T03:10:54;0.47;;;0.30;;
79644;SDS011;69117;47.148;18.954;2024-03-17T03:13:55;0.95;;;0.95;;
79644;SDS011;69117;47.148;18.954;2024-03-17T03:16:56;0.90;;;0.55;;
79644;SDS011;69117;47.148;18.954;2024-03-17T03:19:56;0.60;;;0.40;;
79644;SDS011;69117;47.148;18.954;2024-03-17T03:22:57;1.10;;;0.60;;
79644;SDS011;69117;47.148;18.954;2024-03-17T03:25:58;2.30;;;0.45;;
79644;SDS011;69117;47.148;18.954;2024-03-17T03:29:00;0.73;;;0.68;;
79644;SDS011;69117;47.148;18.954;2024-03-17T03:32:04;0.93;;;0.60;;
79644;SDS011;69117;47.148;18.954;2024-03-17T03:35:05;1.58;;;0.50;;
79644;SDS011;69117;47.148;18.954;2024-03-17T03:38:06;1.85;;;0.50;;
79644;SDS011;69117;47.148;18.954;2024-03-17T03:41:09;0.38;;;0.08;;
79644;SDS011;69117;47.148;18.954;2024-03-17T03:44:11;0.93;;;0.30;;
79644;SDS011;69117;47.148;18.954;2024-03-17T03:47:11;0.47;;;0.43;;
79644;SDS011;69117;47.148;18.954;2024-03-17T03:50:14;0.82;;;0.75;;
79644;SDS011;69117;47.148;18.954;2024-03-17T03:53:16;0.40;;;0.30;;
79644;SDS011;69117;47.148;18.954;2024-03-17T03:56:17;0.40;;;0.28;;
79644;SDS011;69117;47.148;18.954;2024-03-17T04:02:18;0.95;;;0.17;;
79644;SDS011;69117;47.148;18.954;2024-03-17T04:05:19;1.50;;;0.32;;
79644;SDS011;69117;47.148;18.954;2024-03-17T04:08:20;1.15;;;0.93;;
79644;SDS011;69117;47.148;18.954;2024-03-17T04:11:24;0.50;;;0.32;;
79644;SDS011;69117;47.148;18.954;2024-03-17T04:14:25;0.98;;;0.45;;
79644;SDS011;69117;47.148;18.954;2024-03-17T04:17:25;0.57;;;0.40;;
79644;SDS011;69117;47.148;18.954;2024-03-17T04:20:27;0.50;;;0.43;;
79644;SDS011;69117;47.148;18.954;2024-03-17T04:23:28;1.90;;;0.55;;
79644;SDS011;69117;47.148;18.954;2024-03-17T04:26:29;2.65;;;1.63;;
79644;SDS011;69117;47.148;18.954;2024-03-17T04:29:30;1.70;;;0.80;;
79644;SDS011;69117;47.148;18.954;2024-03-17T04:32:31;1.52;;;0.90;;
79644;SDS011;69117;47.148;18.954;2024-03-17T04:38:39;0.80;;;0.35;;
79644;SDS011;69117;47.148;18.954;2024-03-17T04:44:44;0.35;;;0.32;;
79644;SDS011;69117;47.148;18.954;2024-03-17T04:47:45;1.80;;;0.68;;
79644;SDS011;69117;47.148;18.954;2024-03-17T04:50:47;0.60;;;0.40;;
79644;SDS011;69117;47.148;18.954;2024-03-17T04:53:48;0.50;;;0.20;;
79644;SDS011;69117;47.148;18.954;2024-03-17T04:56:48;0.93;;;0.20;;
79644;SDS011;69117;47.148;18.954;2024-03-17T04:59:49;0.70;;;0.25;;
79644;SDS011;69117;47.148;18.954;2024-03-17T05:02:50;0.82;;;0.60;;
79644;SDS011;69117;47.148;18.954;2024-03-17T05:05:58;0.95;;;0.25;;
79644;SDS011;69117;47.148;18.954;2024-03-17T05:09:01;1.48;;;0.50;;
79644;SDS011;69117;47.148;18.954;2024-03-17T05:12:02;1.52;;;0.82;;
79644;SDS011;69117;47.148;18.954;2024-03-17T05:15:02;0.10;;;0.10;;
79644;SDS011;69117;47.148;18.954;2024-03-17T05:18:05;0.63;;;0.10;;
79644;SDS011;69117;47.148;18.954;2024-03-17T05:21:06;0.40;;;0.20;;
79644;SDS011;69117;47.148;18.954;2024-03-17T05:24:07;0.10;;;0.10;;
79644;SDS011;69117;47.148;18.954;2024-03-17T05:27:08;0.60;;;0.30;;
79644;SDS011;69117;47.148;18.954;2024-03-17T05:30:09;0.82;;;0.30;;
79644;SDS011;69117;47.148;18.954;2024-03-17T05:33:10;1.35;;;0.20;;
79644;SDS011;69117;47.148;18.954;2024-03-17T05:36:10;0.43;;;0.17;;
79644;SDS011;69117;47.148;18.954;2024-03-17T05:39:11;1.55;;;0.75;;
79644;SDS011;69117;47.148;18.954;2024-03-17T05:42:12;1.30;;;0.30;;
79644;SDS011;69117;47.148;18.954;2024-03-17T05:45:12;0.73;;;0.22;;
79644;SDS011;69117;47.148;18.954;2024-03-17T05:48:13;0.75;;;0.30;;
79644;SDS011;69117;47.148;18.954;2024-03-17T05:51:14;4.60;;;0.25;;
79644;SDS011;69117;47.148;18.954;2024-03-17T05:54:16;1.20;;;0.32;;
79644;SDS011;69117;47.148;18.954;2024-03-17T05:57:17;0.50;;;0.20;;
79644;SDS011;69117;47.148;18.954;2024-03-17T06:00:18;1.17;;;0.45;;
79644;SDS011;69117;47.148;18.954;2024-03-17T06:03:19;1.17;;;0.73;;
79644;SDS011;69117;47.148;18.954;2024-03-17T06:06:20;0.30;;;0.30;;
79644;SDS011;69117;47.148;18.954;2024-03-17T06:09:20;0.75;;;0.52;;
79644;SDS011;69117;47.148;18.954;2024-03-17T06:12:23;0.47;;;0.15;;
79644;SDS011;69117;47.148;18.954;2024-03-17T06:15:24;1.10;;;0.57;;
79644;SDS011;69117;47.148;18.954;2024-03-17T06:18:24;0.95;;;0.47;;
79644;SDS011;69117;47.148;18.954;2024-03-17T06:21:25;0.20;;;0.20;;
79644;SDS011;69117;47.148;18.954;2024-03-17T06:24:26;0.63;;;0.30;;
79644;SDS011;69117;47.148;18.954;2024-03-17T06:27:27;0.60;;;0.40;;
79644;SDS011;69117;47.148;18.954;2024-03-17T06:30:29;1.10;;;0.30;;
79644;SDS011;69117;47.148;18.954;2024-03-17T06:33:29;0.20;;;0.20;;
79644;SDS011;69117;47.148;18.954;2024-03-17T06:36:34;0.88;;;0.55;;
79644;SDS011;69117;47.148;18.954;2024-03-17T06:39:35;0.47;;;0.30;;
79644;SDS011;69117;47.148;18.954;2024-03-17T06:42:36;2.60;;;0.57;;
79644;SDS011;69117;47.148;18.954;2024-03-17T06:45:36;0.38;;;0.20;;
79644;SDS011;69117;47.148;18.954;2024-03-17T06:48:37;0.22;;;0.22;;
79644;SDS011;69117;47.148;18.954;2024-03-17T06:51:38;0.75;;;0.50;;
79644;SDS011;69117;47.148;18.954;2024-03-17T06:54:38;0.45;;;0.30;;
79644;SDS011;69117;47.148;18.954;2024-03-17T06:57:43;0.63;;;0.20;;
79644;SDS011;69117;47.148;18.954;2024-03-17T07:03:58;0.50;;;0.38;;
79644;SDS011;69117;47.148;18.954;2024-03-17T07:06:59;2.03;;;0.68;;
79644;SDS011;69117;47.148;18.954;2024-03-17T07:10:00;1.98;;;0.30;;
79644;SDS011;69117;47.148;18.954;2024-03-17T07:13:05;0.10;;;0.10;;
79644;SDS011;69117;47.148;18.954;2024-03-17T07:16:06;0.70;;;0.40;;
79644;SDS011;69117;47.148;18.954;2024-03-17T07:19:06;7.32;;;2.05;;
79644;SDS011;69117;47.148;18.954;2024-03-17T07:22:07;1.05;;;0.28;;
79644;SDS011;69117;47.148;18.954;2024-03-17T07:25:08;1.20;;;0.38;;
79644;SDS011;69117;47.148;18.954;2024-03-17T07:28:09;0.55;;;0.22;;
79644;SDS011;69117;47.148;18.954;2024-03-17T07:31:10;1.15;;;0.30;;
79644;SDS011;69117;47.148;18.954;2024-03-17T07:34:11;1.08;;;0.47;;
79644;SDS011;69117;47.148;18.954;2024-03-17T07:37:11;0.80;;;0.22;;
79644;SDS011;69117;47.148;18.954;2024-03-17T07:40:12;0.50;;;0.20;;
79644;SDS011;69117;47.148;18.954;2024-03-17T07:43:13;0.20;;;0.08;;
79644;SDS011;69117;47.148;18.954;2024-03-17T07:46:14;0.25;;;0.13;;
79644;SDS011;69117;47.148;18.954;2024-03-17T07:49:15;0.45;;;0.28;;
79644;SDS011;69117;47.148;18.954;2024-03-17T07:52:16;0.90;;;0.50;;
79644;SDS011;69117;47.148;18.954;2024-03-17T07:55:17;0.05;;;0.00;;
79644;SDS011;69117;47.148;18.954;2024-03-17T07:58:18;0.40;;;0.28;;
79644;SDS011;69117;47.148;18.954;2024-03-17T08:01:19;0.93;;;0.20;;
79644;SDS011;69117;47.148;18.954;2024-03-17T08:04:19;0.28;;;0.28;;
79644;SDS011;69117;47.148;18.954;2024-03-17T08:07:20;0.85;;;0.35;;
79644;SDS011;69117;47.148;18.954;2024-03-17T08:10:21;0.60;;;0.47;;
79644;SDS011;69117;47.148;18.954;2024-03-17T08:13:22;0.10;;;0.10;;
79644;SDS011;69117;47.148;18.954;2024-03-17T08:16:23;0.70;;;0.25;;
79644;SDS011;69117;47.148;18.954;2024-03-17T08:19:23;3.47;;;0.35;;
79644;SDS011;69117;47.148;18.954;2024-03-17T08:22:24;0.40;;;0.38;;
79644;SDS011;69117;47.148;18.954;2024-03-17T08:25:25;0.35;;;0.20;;
79644;SDS011;69117;47.148;18.954;2024-03-17T08:28:26;1.58;;;0.20;;
79644;SDS011;69117;47.148;18.954;2024-03-17T08:31:27;0.52;;;0.25;;
79644;SDS011;69117;47.148;18.954;2024-03-17T08:34:28;1.65;;;0.57;;
79644;SDS011;69117;47.148;18.954;2024-03-17T08:37:29;0.20;;;0.15;;
79644;SDS011;69117;47.148;18.954;2024-03-17T08:40:29;0.50;;;0.10;;
79644;SDS011;69117;47.148;18.954;2024-03-17T08:43:30;1.02;;;0.32;;
79644;SDS011;69117;47.148;18.954;2024-03-17T08:46:32;3.17;;;0.22;;
79644;SDS011;69117;47.148;18.954;2024-03-17T08:49:32;0.35;;;0.13;;
79644;SDS011;69117;47.148;18.954;2024-03-17T08:52:34;0.35;;;0.35;;
79644;SDS011;69117;47.148;18.954;2024-03-17T08:55:35;3.10;;;0.77;;
79644;SDS011;69117;47.148;18.954;2024-03-17T08:58:35;1.08;;;0.25;;
79644;SDS011;69117;47.148;18.954;2024-03-17T09:01:36;2.17;;;0.25;;
79644;SDS011;69117;47.148;18.954;2024-03-17T09:04:37;0.68;;;0.35;;
79644;SDS011;69117;47.148;18.954;2024-03-17T09:07:38;0.50;;;0.40;;
79644;SDS011;69117;47.148;18.954;2024-03-17T09:10:39;0.35;;;0.28;;
79644;SDS011;69117;47.148;18.954;2024-03-17T09:13:40;0.10;;;0.00;;
79644;SDS011;69117;47.148;18.954;2024-03-17T09:16:41;0.50;;;0.40;;
79644;SDS011;69117;47.148;18.954;2024-03-17T09:19:42;1.50;;;0.63;;
79644;SDS011;69117;47.148;18.954;2024-03-17T09:22:42;1.60;;;0.30;;
79644;SDS011;69117;47.148;18.954;2024-03-17T09:25:43;0.90;;;0.45;;
79644;SDS011;69117;47.148;18.954;2024-03-17T09:28:44;3.17;;;0.25;;
79644;SDS011;69117;47.148;18.954;2024-03-17T09:31:44;0.50;;;0.22;;
79644;SDS011;69117;47.148;18.954;2024-03-17T09:35:02;0.60;;;0.38;;
79644;SDS011;69117;47.148;18.954;2024-03-17T09:38:03;0.40;;;0.25;;
79644;SDS011;69117;47.148;18.954;2024-03-17T09:41:08;0.32;;;0.20;;
79644;SDS011;69117;47.148;18.954;2024-03-17T09:44:27;1.80;;;0.73;;
79644;SDS011;69117;47.148;18.954;2024-03-17T09:47:28;0.17;;;0.10;;
79644;SDS011;69117;47.148;18.954;2024-03-17T09:50:29;0.63;;;0.25;;
79644;SDS011;69117;47.148;18.954;2024-03-17T09:53:34;0.50;;;0.10;;
79644;SDS011;69117;47.148;18.954;2024-03-17T09:56:35;0.68;;;0.47;;
79644;SDS011;69117;47.148;18.954;2024-03-17T09:59:36;1.20;;;0.40;;
79644;SDS011;69117;47.148;18.954;2024-03-17T10:02:37;3.28;;;0.50;;
79644;SDS011;69117;47.148;18.954;2024-03-17T10:05:58;7.15;;;0.60;;
79644;SDS011;69117;47.148;18.954;2024-03-17T10:09:00;1.08;;;0.57;;
79644;SDS011;69117;47.148;18.954;2024-03-17T10:12:28;1.58;;;0.30;;
79644;SDS011;69117;47.148;18.954;2024-03-17T10:15:29;3.03;;;0.22;;
79644;SDS011;69117;47.148;18.954;2024-03-17T10:18:30;0.43;;;0.28;;
79644;SDS011;69117;47.148;18.954;2024-03-17T10:21:31;0.40;;;0.40;;
79644;SDS011;69117;47.148;18.954;2024-03-17T10:24:32;0.93;;;0.52;;
79644;SDS011;69117;47.148;18.954;2024-03-17T10:27:34;0.57;;;0.30;;
79644;SDS011;69117;47.148;18.954;2024-03-17T10:30:35;0.73;;;0.35;;
79644;SDS011;69117;47.148;18.954;2024-03-17T10:33:37;3.45;;;0.80;;
79644;SDS011;69117;47.148;18.954;2024-03-17T10:36:37;0.73;;;0.73;;
79644;SDS011;69117;47.148;18.954;2024-03-17T10:39:39;0.60;;;0.45;;
79644;SDS011;69117;47.148;18.954;2024-03-17T10:42:40;1.83;;;0.22;;
79644;SDS011;69117;47.148;18.954;2024-03-17T10:45:41;0.28;;;0.10;;
79644;SDS011;69117;47.148;18.954;2024-03-17T10:48:43;1.48;;;0.45;;
79644;SDS011;69117;47.148;18.954;2024-03-17T10:51:45;0.68;;;0.32;;
79644;SDS011;69117;47.148;18.954;2024-03-17T10:54:53;2.05;;;0.40;;
79644;SDS011;69117;47.148;18.954;2024-03-17T10:57:55;2.67;;;0.32;;
79644;SDS011;69117;47.148;18.954;2024-03-17T11:01:14;0.93;;;0.45;;
79644;SDS011;69117;47.148;18.954;2024-03-17T11:04:15;0.73;;;0.20;;
79644;SDS011;69117;47.148;18.954;2024-03-17T11:07:17;0.55;;;0.55;;
79644;SDS011;69117;47.148;18.954;2024-03-17T11:10:29;0.32;;;0.28;;
79644;SDS011;69117;47.148;18.954;2024-03-17T11:13:34;0.65;;;0.32;;
79644;SDS011;69117;47.148;18.954;2024-03-17T11:16:36;0.20;;;0.20;;
79644;SDS011;69117;47.148;18.954;2024-03-17T11:19:37;0.63;;;0.63;;
79644;SDS011;69117;47.148;18.954;2024-03-17T11:22:41;0.43;;;0.13;;
79644;SDS011;69117;47.148;18.954;2024-03-17T11:25:44;0.28;;;0.17;;
79644;SDS011;69117;47.148;18.954;2024-03-17T11:28:52;2.20;;;0.22;;
79644;SDS011;69117;47.148;18.954;2024-03-17T11:31:53;0.38;;;0.30;;
79644;SDS011;69117;47.148;18.954;2024-03-17T11:35:12;0.38;;;0.38;;
79644;SDS011;69117;47.148;18.954;2024-03-17T11:38:50;1.27;;;0.20;;
79644;SDS011;69117;47.148;18.954;2024-03-17T11:41:52;0.20;;;0.20;;
79644;SDS011;69117;47.148;18.954;2024-03-17T11:47:58;1.17;;;0.22;;
79644;SDS011;69117;47.148;18.954;2024-03-17T11:54:01;0.40;;;0.30;;
79644;SDS011;69117;47.148;18.954;2024-03-17T11:57:06;0.30;;;0.30;;
79644;SDS011;69117;47.148;18.954;2024-03-17T12:00:15;0.15;;;0.10;;
79644;SDS011;69117;47.148;18.954;2024-03-17T12:03:20;0.30;;;0.22;;
79644;SDS011;69117;47.148;18.954;2024-03-17T12:06:20;0.90;;;0.25;;
79644;SDS011;69117;47.148;18.954;2024-03-17T12:09:22;5.60;;;1.85;;
79644;SDS011;69117;47.148;18.954;2024-03-17T12:12:27;0.95;;;0.20;;
79644;SDS011;69117;47.148;18.954;2024-03-17T12:15:38;0.50;;;0.13;;
79644;SDS011;69117;47.148;18.954;2024-03-17T12:18:39;0.70;;;0.70;;
79644;SDS011;69117;47.148;18.954;2024-03-17T12:21:46;1.60;;;0.17;;
79644;SDS011;69117;47.148;18.954;2024-03-17T12:24:50;2.15;;;0.40;;
79644;SDS011;69117;47.148;18.954;2024-03-17T12:27:55;0.50;;;0.30;;
79644;SDS011;69117;47.148;18.954;2024-03-17T12:30:55;0.73;;;0.60;;
79644;SDS011;69117;47.148;18.954;2024-03-17T12:33:59;1.27;;;0.35;;
79644;SDS011;69117;47.148;18.954;2024-03-17T12:37:00;1.58;;;0.47;;
79644;SDS011;69117;47.148;18.954;2024-03-17T12:40:01;1.38;;;0.65;;
79644;SDS011;69117;47.148;18.954;2024-03-17T12:43:03;0.20;;;0.20;;
79644;SDS011;69117;47.148;18.954;2024-03-17T12:46:07;0.45;;;0.43;;
79644;SDS011;69117;47.148;18.954;2024-03-17T12:49:13;2.30;;;0.35;;
79644;SDS011;69117;47.148;18.954;2024-03-17T12:52:30;2.17;;;0.47;;
79644;SDS011;69117;47.148;18.954;2024-03-17T12:55:32;1.02;;;1.02;;
79644;SDS011;69117;47.148;18.954;2024-03-17T12:58:51;0.30;;;0.30;;
79644;SDS011;69117;47.148;18.954;2024-03-17T13:02:11;0.38;;;0.38;;
79644;SDS011;69117;47.148;18.954;2024-03-17T13:05:16;0.95;;;0.43;;
79644;SDS011;69117;47.148;18.954;2024-03-17T13:08:18;0.90;;;0.43;;
79644;SDS011;69117;47.148;18.954;2024-03-17T13:14:19;0.20;;;0.20;;
79644;SDS011;69117;47.148;18.954;2024-03-17T13:20:20;1.13;;;0.32;;
79644;SDS011;69117;47.148;18.954;2024-03-17T13:26:22;0.85;;;0.85;;
79644;SDS011;69117;47.148;18.954;2024-03-17T13:29:22;6.22;;;0.32;;
79644;SDS011;69117;47.148;18.954;2024-03-17T13:35:27;0.32;;;0.32;;
79644;SDS011;69117;47.148;18.954;2024-03-17T13:38:31;2.08;;;0.13;;
79644;SDS011;69117;47.148;18.954;2024-03-17T13:41:32;2.05;;;0.22;;
79644;SDS011;69117;47.148;18.954;2024-03-17T13:44:34;1.05;;;0.40;;
79644;SDS011;69117;47.148;18.954;2024-03-17T13:50:36;0.28;;;0.28;;
79644;SDS011;69117;47.148;18.954;2024-03-17T13:53:41;0.20;;;0.20;;
79644;SDS011;69117;47.148;18.954;2024-03-17T13:56:48;0.68;;;0.40;;
79644;SDS011;69117;47.148;18.954;2024-03-17T13:59:49;2.22;;;0.50;;
79644;SDS011;69117;47.148;18.954;2024-03-17T14:02:51;2.63;;;0.22;;
79644;SDS011;69117;47.148;18.954;2024-03-17T14:05:53;0.70;;;0.22;;
79644;SDS011;69117;47.148;18.954;2024-03-17T14:08:54;0.30;;;0.30;;
79644;SDS011;69117;47.148;18.954;2024-03-17T14:11:56;0.13;;;0.03;;
79644;SDS011;69117;47.148;18.954;2024-03-17T14:14:57;0.13;;;0.13;;
79644;SDS011;69117;47.148;18.954;2024-03-17T14:17:58;2.80;;;0.22;;
79644;SDS011;69117;47.148;18.954;2024-03-17T14:20:58;0.93;;;0.43;;
79644;SDS011;69117;47.148;18.954;2024-03-17T14:23:59;1.23;;;0.80;;
79644;SDS011;69117;47.148;18.954;2024-03-17T14:27:03;0.22;;;0.22;;
79644;SDS011;69117;47.148;18.954;2024-03-17T14:30:05;0.57;;;0.40;;
79644;SDS011;69117;47.148;18.954;2024-03-17T14:33:08;3.33;;;0.30;;
79644;SDS011;69117;47.148;18.954;2024-03-17T14:36:08;1.73;;;0.22;;
79644;SDS011;69117;47.148;18.954;2024-03-17T14:39:09;0.40;;;0.13;;
79644;SDS011;69117;47.148;18.954;2024-03-17T14:42:10;1.50;;;0.28;;
79644;SDS011;69117;47.148;18.954;2024-03-17T14:45:11;1.05;;;0.60;;
79644;SDS011;69117;47.148;18.954;2024-03-17T14:48:12;1.15;;;0.47;;
79644;SDS011;69117;47.148;18.954;2024-03-17T14:51:17;0.30;;;0.13;;
79644;SDS011;69117;47.148;18.954;2024-03-17T14:54:18;3.30;;;0.15;;
79644;SDS011;69117;47.148;18.954;2024-03-17T14:57:20;0.40;;;0.40;;
79644;SDS011;69117;47.148;18.954;2024-03-17T15:00:21;1.08;;;0.22;;
79644;SDS011;69117;47.148;18.954;2024-03-17T15:03:23;0.00;;;0.00;;
79644;SDS011;69117;47.148;18.954;2024-03-17T15:06:24;1.00;;;0.77;;
79644;SDS011;69117;47.148;18.954;2024-03-17T15:09:25;1.27;;;0.35;;
79644;SDS011;69117;47.148;18.954;2024-03-17T15:12:26;1.08;;;0.28;;
79644;SDS011;69117;47.148;18.954;2024-03-17T15:15:26;1.67;;;0.28;;
79644;SDS011;69117;47.148;18.954;2024-03-17T15:18:28;0.70;;;0.70;;
79644;SDS011;69117;47.148;18.954;2024-03-17T15:21:29;1.45;;;0.13;;
79644;SDS011;69117;47.148;18.954;2024-03-17T15:24:30;1.90;;;0.32;;
79644;SDS011;69117;47.148;18.954;2024-03-17T15:27:37;0.20;;;0.13;;
79644;SDS011;69117;47.148;18.954;2024-03-17T15:30:37;0.40;;;0.15;;
79644;SDS011;69117;47.148;18.954;2024-03-17T15:33:38;0.32;;;0.15;;
79644;SDS011;69117;47.148;18.954;2024-03-17T15:36:41;0.43;;;0.22;;
79644;SDS011;69117;47.148;18.954;2024-03-17T15:39:43;0.50;;;0.22;;
79644;SDS011;69117;47.148;18.954;2024-03-17T15:42:44;0.20;;;0.20;;
79644;SDS011;69117;47.148;18.954;2024-03-17T15:45:46;0.63;;;0.22;;
79644;SDS011;69117;47.148;18.954;2024-03-17T15:48:46;0.57;;;0.45;;
79644;SDS011;69117;47.148;18.954;2024-03-17T15:51:47;4.97;;;0.30;;
79644;SDS011;69117;47.148;18.954;2024-03-17T15:54:48;1.02;;;0.43;;
79644;SDS011;69117;47.148;18.954;2024-03-17T15:57:49;0.30;;;0.25;;
79644;SDS011;69117;47.148;18.954;2024-03-17T16:00:50;0.20;;;0.03;;
79644;SDS011;69117;47.148;18.954;2024-03-17T16:03:51;1.92;;;0.52;;
79644;SDS011;69117;47.148;18.954;2024-03-17T16:06:52;0.30;;;0.30;;
79644;SDS011;69117;47.148;18.954;2024-03-17T16:09:55;0.25;;;0.20;;
79644;SDS011;69117;47.148;18.954;2024-03-17T16:12:56;0.85;;;0.65;;
79644;SDS011;69117;47.148;18.954;2024-03-17T16:18:58;1.02;;;0.50;;
79644;SDS011;69117;47.148;18.954;2024-03-17T16:22:01;2.78;;;1.33;;
79644;SDS011;69117;47.148;18.954;2024-03-17T16:25:04;9.80;;;1.70;;
79644;SDS011;69117;47.148;18.954;2024-03-17T16:28:05;4.80;;;2.20;;
79644;SDS011;69117;47.148;18.954;2024-03-17T16:31:06;0.57;;;0.32;;
79644;SDS011;69117;47.148;18.954;2024-03-17T16:34:07;3.33;;;0.85;;
79644;SDS011;69117;47.148;18.954;2024-03-17T16:37:09;1.55;;;0.73;;
79644;SDS011;69117;47.148;18.954;2024-03-17T16:40:10;1.42;;;0.55;;
79644;SDS011;69117;47.148;18.954;2024-03-17T16:43:14;2.75;;;0.85;;
79644;SDS011;69117;47.148;18.954;2024-03-17T16:52:50;0.85;;;0.55;;
79644;SDS011;69117;47.148;18.954;2024-03-17T16:55:51;0.73;;;0.55;;
79644;SDS011;69117;47.148;18.954;2024-03-17T16:58:51;0.75;;;0.50;;
79644;SDS011;69117;47.148;18.954;2024-03-17T17:01:52;3.05;;;0.63;;
79644;SDS011;69117;47.148;18.954;2024-03-17T17:04:53;1.70;;;0.40;;
79644;SDS011;69117;47.148;18.954;2024-03-17T17:07:54;4.10;;;1.45;;
79644;SDS011;69117;47.148;18.954;2024-03-17T17:10:54;2.15;;;0.75;;
79644;SDS011;69117;47.148;18.954;2024-03-17T17:13:55;5.85;;;1.65;;
79644;SDS011;69117;47.148;18.954;2024-03-17T17:16:56;1.65;;;1.25;;
79644;SDS011;69117;47.148;18.954;2024-03-17T17:19:57;2.10;;;0.95;;
79644;SDS011;69117;47.148;18.954;2024-03-17T17:22:58;1.80;;;0.77;;
79644;SDS011;69117;47.148;18.954;2024-03-17T17:25:59;3.55;;;0.90;;
79644;SDS011;69117;47.148;18.954;2024-03-17T17:29:02;2.40;;;0.82;;
79644;SDS011;69117;47.148;18.954;2024-03-17T17:32:04;2.50;;;0.80;;
79644;SDS011;69117;47.148;18.954;2024-03-17T17:35:07;0.73;;;0.38;;
79644;SDS011;69117;47.148;18.954;2024-03-17T17:38:09;4.30;;;1.27;;
79644;SDS011;69117;47.148;18.954;2024-03-17T17:41:09;2.70;;;1.00;;
79644;SDS011;69117;47.148;18.954;2024-03-17T17:44:14;5.30;;;2.70;;
79644;SDS011;69117;47.148;18.954;2024-03-17T17:47:15;3.22;;;1.73;;
79644;SDS011;69117;47.148;18.954;2024-03-17T17:50:15;6.30;;;1.95;;
79644;SDS011;69117;47.148;18.954;2024-03-17T17:53:16;4.18;;;1.65;;
79644;SDS011;69117;47.148;18.954;2024-03-17T17:56:18;5.00;;;2.65;;
79644;SDS011;69117;47.148;18.954;2024-03-17T17:59:20;2.60;;;1.83;;
79644;SDS011;69117;47.148;18.954;2024-03-17T18:02:20;2.72;;;0.90;;
79644;SDS011;69117;47.148;18.954;2024-03-17T18:05:21;3.83;;;1.17;;
79644;SDS011;69117;47.148;18.954;2024-03-17T18:08:23;3.28;;;1.52;;
79644;SDS011;69117;47.148;18.954;2024-03-17T18:11:25;4.40;;;2.13;;
79644;SDS011;69117;47.148;18.954;2024-03-17T18:14:26;9.50;;;3.97;;
79644;SDS011;69117;47.148;18.954;2024-03-17T18:17:27;4.65;;;1.98;;
79644;SDS011;69117;47.148;18.954;2024-03-17T18:20:27;6.88;;;3.10;;
79644;SDS011;69117;47.148;18.954;2024-03-17T18:23:28;5.93;;;2.78;;
79644;SDS011;69117;47.148;18.954;2024-03-17T18:26:30;4.20;;;1.75;;
79644;SDS011;69117;47.148;18.954;2024-03-17T18:29:30;3.97;;;1.80;;
79644;SDS011;69117;47.148;18.954;2024-03-17T18:32:31;8.60;;;3.60;;
79644;SDS011;69117;47.148;18.954;2024-03-17T18:35:32;7.57;;;4.03;;
79644;SDS011;69117;47.148;18.954;2024-03-17T18:38:34;13.75;;;4.03;;
79644;SDS011;69117;47.148;18.954;2024-03-17T18:41:35;7.93;;;4.03;;
79644;SDS011;69117;47.148;18.954;2024-03-17T18:44:36;4.43;;;1.83;;